createdAt,value
2022-12-12T00:28:47.961Z,99370.84
2022-12-12T00:33:55.174Z,99361.47
2022-12-12T00:39:01.862Z,99351.25
2022-12-12T00:44:09.825Z,99354.63
2022-12-12T00:49:16.269Z,99346.13
2022-12-12T00:54:22.554Z,99343.56
2022-12-12T00:59:30.335Z,99346.94
2022-12-12T01:04:36.706Z,99351.22
2022-12-12T01:09:42.975Z,99337.59
2022-12-12T01:14:50.794Z,99334.22
2022-12-12T01:19:57.728Z,99325.69
2022-12-12T01:25:04.328Z,99327.41
2022-12-12T01:30:18.913Z,99309.53
2022-12-12T01:35:25.891Z,99306.13
2022-12-12T01:40:33.653Z,99310.41
2022-12-12T01:46:45.954Z,99304.44
2022-12-12T01:51:56.466Z,99291.66
2022-12-12T01:57:08.745Z,99276.34
2022-12-12T02:02:16.553Z,99275.53
2022-12-12T02:07:22.812Z,99277.22
2022-12-12T02:12:29.009Z,99268.72
2022-12-12T02:17:56.406Z,99277.25
2022-12-12T02:23:43.525Z,99275.56
2022-12-12T02:29:20.843Z,99277.25
2022-12-12T02:34:36.376Z,99281.50
2022-12-12T02:39:55.732Z,99279.84
2022-12-12T02:45:11.413Z,99271.31
2022-12-12T02:50:24.331Z,99273.00
2022-12-12T02:55:33.781Z,99278.16
2022-12-12T03:00:54.498Z,99263.66
2022-12-12T03:06:41.303Z,99269.66
2022-12-12T03:12:03.281Z,99267.09
2022-12-12T03:17:17.765Z,99266.28
2022-12-12T03:22:29.149Z,99255.22
2022-12-12T03:27:42.787Z,99254.38
2022-12-12T03:32:57.174Z,99253.53
2022-12-12T03:38:14.464Z,99248.44
2022-12-12T03:43:24.911Z,99252.69
2022-12-12T03:48:33.335Z,99251.00
2022-12-12T03:53:47.327Z,99255.28
2022-12-12T03:59:01.516Z,99244.22
2022-12-12T04:04:16.349Z,99237.41
2022-12-12T04:09:42.814Z,99244.22
2022-12-12T04:15:30.425Z,99237.41
2022-12-12T04:21:03.616Z,99230.59
2022-12-12T04:26:36.257Z,99225.50
2022-12-12T04:31:51.158Z,99228.06
2022-12-12T04:36:57.719Z,99220.41
2022-12-12T04:42:09.399Z,99222.09
2022-12-12T04:47:18.976Z,99218.69
2022-12-12T04:52:28.365Z,99220.41
2022-12-12T04:57:42.833Z,99205.06
2022-12-12T05:02:59.660Z,99211.03
2022-12-12T05:08:12.754Z,99217.00
2022-12-12T05:13:23.862Z,99217.00
2022-12-12T05:18:30.928Z,99214.47
2022-12-12T05:23:37.239Z,99220.44
2022-12-12T05:28:44.797Z,99217.03
2022-12-12T05:33:51.186Z,99213.63
2022-12-12T05:38:58.457Z,99207.66
2022-12-12T05:44:06.377Z,99210.19
2022-12-12T05:49:13.129Z,99216.19
2022-12-12T05:54:19.612Z,99207.63
2022-12-12T05:59:27.544Z,99201.69
2022-12-12T06:04:35.385Z,99192.31
2022-12-12T06:09:41.892Z,99188.03
2022-12-12T06:14:50.529Z,99194.00
2022-12-12T06:19:56.805Z,99193.16
2022-12-12T06:25:03.185Z,99199.13
2022-12-12T06:30:12.942Z,99194.84
2022-12-12T06:35:23.435Z,99201.69
2022-12-12T06:40:30.049Z,99203.41
2022-12-12T06:45:38.082Z,99211.91
2022-12-12T06:50:45.891Z,99213.63
2022-12-12T06:55:52.228Z,99210.19
2022-12-12T07:01:00.388Z,99216.19
2022-12-12T07:06:07.636Z,99215.34
2022-12-12T07:11:16.890Z,99212.78
2022-12-12T07:16:25.507Z,99217.91
2022-12-12T07:21:32.118Z,99224.72
2022-12-12T07:26:38.411Z,99206.78
2022-12-12T07:31:46.139Z,99211.94
2022-12-12T07:36:53.762Z,99217.88
2022-12-12T07:42:02.967Z,99212.78
2022-12-12T07:47:11.757Z,99228.13
2022-12-12T07:52:17.934Z,99224.72
2022-12-12T07:57:24.093Z,99221.31
2022-12-12T08:02:31.961Z,99228.97
2022-12-12T08:07:38.328Z,99231.53
2022-12-12T08:12:44.481Z,99231.53
2022-12-12T08:17:52.303Z,99232.41
2022-12-12T08:22:58.523Z,99243.50
2022-12-12T08:28:05.028Z,99235.81
2022-12-12T08:33:12.808Z,99247.72
2022-12-12T08:38:19.156Z,99242.63
2022-12-12T08:43:25.391Z,99244.31
2022-12-12T08:48:35.435Z,99255.41
2022-12-12T08:53:41.894Z,99254.56
2022-12-12T08:58:48.978Z,99251.13
2022-12-12T09:03:58.463Z,99246.03
2022-12-12T09:09:05.102Z,99246.03
2022-12-12T09:14:11.903Z,99245.13
2022-12-12T09:19:20.025Z,99246.88
2022-12-12T09:24:26.523Z,99245.97
2022-12-12T09:29:32.856Z,99249.41
2022-12-12T09:34:41.508Z,99241.69
2022-12-12T09:39:47.777Z,99236.59
2022-12-12T09:44:59.223Z,99240.84
2022-12-12T09:50:19.100Z,99242.50
2022-12-12T09:55:40.419Z,99245.06
2022-12-12T10:00:53.988Z,99250.13
2022-12-12T10:11:55.284Z,99249.28
2022-12-12T10:17:03.927Z,99251.88
2022-12-12T10:22:36.482Z,99251.84
2022-12-12T10:27:42.970Z,99256.97
2022-12-12T10:33:17.808Z,99244.16
2022-12-12T10:38:50.731Z,99251.88
2022-12-12T10:44:05.752Z,99245.03
2022-12-12T10:49:18.747Z,99251.84
2022-12-12T10:54:29.415Z,99255.25
2022-12-12T10:59:43.586Z,99257.00
2022-12-12T11:04:49.907Z,99252.72
2022-12-12T11:10:01.895Z,99255.28
2022-12-12T11:15:18.651Z,99252.72
2022-12-12T11:20:25.918Z,99257.81
2022-12-12T11:25:36.457Z,99257.84
2022-12-12T11:30:45.722Z,99257.84
2022-12-12T11:35:57.398Z,99249.25
2022-12-12T11:41:08.246Z,99250.13
2022-12-12T11:46:21.206Z,99262.94
2022-12-12T11:51:38.124Z,99255.22
2022-12-12T11:56:52.713Z,99254.38
2022-12-12T12:02:17.738Z,99256.06
2022-12-12T12:07:52.681Z,99259.50
2022-12-12T12:13:18.251Z,99264.59
2022-12-12T12:18:45.739Z,99265.47
2022-12-12T12:24:13.294Z,99260.34
2022-12-12T12:29:41.343Z,99267.16
2022-12-12T12:35:02.439Z,99257.75
2022-12-12T12:40:24.779Z,99262.03
2022-12-12T12:45:45.930Z,99256.06
2022-12-12T12:51:06.074Z,99268.03
2022-12-12T12:56:27.026Z,99268.84
2022-12-12T13:01:40.945Z,99261.16
2022-12-12T13:06:53.866Z,99270.56
2022-12-12T13:12:07.082Z,99271.41
2022-12-12T13:17:22.393Z,99278.25
2022-12-12T13:22:41.637Z,99283.38
2022-12-12T13:27:54.663Z,99284.25
2022-12-12T13:33:33.669Z,99286.81
2022-12-12T13:38:40.338Z,99298.78
2022-12-12T13:43:50.019Z,99297.94
2022-12-12T13:49:01.724Z,99303.06
2022-12-12T13:54:49.342Z,99301.34
2022-12-12T14:00:26.303Z,99301.34
2022-12-12T14:05:40.109Z,99300.50
2022-12-12T14:11:03.278Z,99313.31
2022-12-12T14:16:23.201Z,99311.63
2022-12-12T14:21:50.369Z,99318.44
2022-12-12T14:26:56.931Z,99319.28
2022-12-12T14:32:35.225Z,99321.00
2022-12-12T14:37:52.486Z,99323.59
2022-12-12T14:43:18.999Z,99331.28
2022-12-12T14:48:31.978Z,99333.84
2022-12-12T14:53:48.891Z,99338.09
2022-12-12T14:59:03.187Z,99338.97
2022-12-12T15:04:13.093Z,99331.28
2022-12-12T15:09:27.642Z,99346.69
2022-12-12T15:14:34.084Z,99345.81
2022-12-12T15:19:45.146Z,99348.38
2022-12-12T15:24:54.257Z,99356.09
2022-12-12T15:30:01.527Z,99368.91
2022-12-12T15:35:19.243Z,99367.19
2022-12-12T15:40:32.137Z,99366.31
2022-12-12T15:45:41.885Z,99374.00
2022-12-12T15:50:58.411Z,99374.91
2022-12-12T15:56:09.713Z,99373.16
2022-12-12T16:01:22.564Z,99375.75
2022-12-12T16:06:35.736Z,99375.72
2022-12-12T16:11:47.305Z,99387.72
2022-12-12T16:16:59.353Z,99386.00
2022-12-12T16:22:09.536Z,99399.66
2022-12-12T16:27:17.742Z,99395.41
2022-12-12T16:32:25.735Z,99403.09
2022-12-12T16:37:32.178Z,99393.69
2022-12-12T16:42:40.737Z,99403.94
2022-12-12T16:47:47.163Z,99399.69
2022-12-12T16:52:53.534Z,99401.41
2022-12-12T16:58:01.810Z,99405.69
2022-12-12T17:03:09.430Z,99416.78
2022-12-12T17:08:17.395Z,99422.78
2022-12-12T17:13:27.274Z,99427.03
2022-12-12T17:18:33.785Z,99427.03
2022-12-12T17:23:42.191Z,99438.16
2022-12-12T17:28:51.034Z,99439.03
2022-12-12T17:33:57.876Z,99445.03
2022-12-12T17:39:06.367Z,99445.84
2022-12-12T17:44:14.349Z,99462.09
2022-12-12T17:49:20.672Z,99460.38
2022-12-12T17:54:28.245Z,99463.81
2022-12-12T17:59:45.797Z,99468.09
2022-12-12T18:04:54.037Z,99472.38
2022-12-12T18:10:01.756Z,99470.66
2022-12-12T18:15:12.862Z,99474.09
2022-12-12T18:20:22.211Z,99485.16
2022-12-12T18:25:31.841Z,99489.44
2022-12-12T18:30:47.369Z,99494.56
2022-12-12T18:36:03.933Z,99496.28
2022-12-12T18:41:11.934Z,99510.84
2022-12-12T18:46:25.086Z,99519.38
2022-12-12T18:51:33.994Z,99513.38
2022-12-12T18:56:41.211Z,99529.63
2022-12-12T19:01:52.242Z,99537.31
2022-12-12T19:07:00.819Z,99541.56
2022-12-12T19:12:11.637Z,99550.13
2022-12-12T19:17:26.078Z,99541.56
2022-12-12T19:22:51.266Z,99551.81
2022-12-12T19:28:01.941Z,99552.66
2022-12-12T19:33:12.071Z,99570.59
2022-12-12T19:38:24.391Z,99580.00
2022-12-12T19:43:33.715Z,99574.03
2022-12-12T19:48:48.278Z,99589.38
2022-12-12T19:54:00.597Z,99591.94
2022-12-12T19:59:09.617Z,99597.91
2022-12-12T20:04:23.757Z,99604.75
2022-12-12T20:09:33.310Z,99603.91
2022-12-12T20:14:42.644Z,99613.28
2022-12-12T20:19:54.014Z,99620.97
2022-12-12T20:25:02.042Z,99614.13
2022-12-12T20:30:14.755Z,99620.97
2022-12-12T20:35:24.931Z,99633.78
2022-12-12T20:40:34.579Z,99626.09
2022-12-12T20:45:42.060Z,99641.47
2022-12-12T20:50:52.356Z,99649.16
2022-12-12T20:56:11.036Z,99657.66
2022-12-12T21:01:20.238Z,99660.25
2022-12-12T21:06:31.575Z,99675.63
2022-12-12T21:11:40.586Z,99669.63
2022-12-12T21:16:47.801Z,99673.91
2022-12-12T21:21:56.907Z,99675.59
2022-12-12T21:27:03.968Z,99685.88
2022-12-12T21:32:11.057Z,99691.03
2022-12-12T21:37:19.208Z,99691.84
2022-12-12T21:42:25.641Z,99694.44
2022-12-12T21:47:32.097Z,99697.84
2022-12-12T21:52:39.977Z,99709.84
2022-12-12T21:57:46.621Z,99708.97
2022-12-12T22:02:52.938Z,99703.84
2022-12-12T22:08:01.059Z,99708.09
2022-12-12T22:13:07.798Z,99710.66
2022-12-12T22:18:14.916Z,99711.50
2022-12-12T22:23:23.551Z,99708.06
2022-12-12T22:28:29.763Z,99718.31
2022-12-12T22:33:36.008Z,99720.00
2022-12-12T22:38:44.026Z,99724.25
2022-12-12T22:43:53.966Z,99723.34
2022-12-12T22:49:03.338Z,99731.09
2022-12-12T22:54:11.562Z,99729.34
2022-12-12T22:59:18.245Z,99751.53
2022-12-12T23:04:24.626Z,99754.94
2022-12-12T23:09:33.880Z,99753.25
2022-12-12T23:14:40.260Z,99759.22
2022-12-12T23:19:47.857Z,99766.06
2022-12-12T23:24:55.899Z,99777.16
2022-12-12T23:30:02.306Z,99788.25
2022-12-12T23:35:09.945Z,99789.94
2022-12-12T23:40:17.739Z,99790.84
2022-12-12T23:45:23.819Z,99795.09
2022-12-12T23:50:29.952Z,99801.09
2022-12-12T23:55:37.631Z,99813.91
